Time;durP1;ratioP1;P1;durP2;ratioP2;P2;SDS_P1;SDS_P2;PMS_P1;PMS_P2;Temp;Humidity;BMP_temperature;BMP_pressure;BME280_temperature;BME280_humidity;BME280_pressure;Samples;Min_cycle;Max_cycle;Signal;HPM_P1;HPM_P2
2023/12/14 00:00:26;;;;;;;49.22;23.90;;;9.10;99.90;;;9.39;85.51;99629.53;5080703;28;20135;-81
2023/12/14 00:02:54;;;;;;;52.63;25.63;;;9.20;99.90;;;9.40;85.32;99639.94;5079779;28;20548;-81
2023/12/14 00:05:21;;;;;;;49.22;25.27;;;9.20;99.90;;;9.44;85.32;99642.97;5081011;28;20048;-81
2023/12/14 00:07:48;;;;;;;47.88;23.70;;;9.20;99.90;;;9.39;84.27;99648.16;5078731;28;20220;-81
2023/12/14 00:10:17;;;;;;;46.00;23.77;;;9.20;99.90;;;9.30;84.58;99650.28;5079082;28;20052;-81
2023/12/14 00:12:45;;;;;;;45.97;22.75;;;9.10;99.90;;;9.32;84.79;99656.22;5080602;28;20048;-81
2023/12/14 00:15:14;;;;;;;41.97;22.17;;;9.10;99.90;;;9.33;84.00;99655.19;5080915;28;20087;-81
2023/12/14 00:17:43;;;;;;;38.80;21.33;;;9.10;99.90;;;9.31;84.21;99656.41;5062527;28;20049;-81
2023/12/14 00:20:11;;;;;;;34.50;19.48;;;9.10;99.90;;;9.16;83.34;99660.28;5079336;28;20052;-81
2023/12/14 00:22:38;;;;;;;39.15;20.92;;;8.90;99.90;;;9.11;83.90;99662.78;5079023;28;20140;-81
2023/12/14 00:25:07;;;;;;;35.20;19.33;;;8.90;99.90;;;9.09;84.14;99670.19;5046569;28;20476;-81
2023/12/14 00:27:34;;;;;;;34.60;18.10;;;8.90;99.90;;;9.08;84.20;99673.88;5078989;28;20094;-81
2023/12/14 00:30:02;;;;;;;35.38;18.63;;;8.80;99.90;;;9.01;83.91;99689.06;5096625;28;20071;-81
2023/12/14 00:32:31;;;;;;;30.85;18.00;;;8.80;99.90;;;9.02;84.20;99680.88;5062568;28;20116;-81
2023/12/14 00:34:59;;;;;;;29.70;16.60;;;8.80;99.90;;;9.05;84.29;99689.47;5079609;28;20045;-81
2023/12/14 00:37:26;;;;;;;33.22;17.15;;;8.80;99.90;;;9.07;84.26;99690.84;5080303;28;20043;-81
2023/12/14 00:39:54;;;;;;;31.15;16.88;;;8.80;99.90;;;9.08;83.94;99695.16;5082148;28;20460;-81
2023/12/14 00:42:22;;;;;;;29.23;16.38;;;8.80;99.90;;;9.11;83.45;99705.34;5082497;28;20514;-81
2023/12/14 00:44:49;;;;;;;25.10;15.15;;;8.90;99.90;;;9.09;83.30;99711.94;5083086;28;20396;-81
2023/12/14 00:47:17;;;;;;;30.20;16.15;;;8.80;99.90;;;9.08;83.00;99715.59;5081883;28;20044;-81
2023/12/14 00:49:46;;;;;;;25.35;15.30;;;9.00;99.90;;;9.06;82.95;99720.34;5080323;28;20048;-81
2023/12/14 00:52:14;;;;;;;27.40;15.57;;;8.80;99.90;;;9.04;83.21;99725.88;5078797;28;20098;-81
2023/12/14 00:54:42;;;;;;;25.63;15.50;;;8.80;99.90;;;9.02;83.07;99738.56;5027895;28;20101;-81
2023/12/14 00:57:09;;;;;;;27.65;15.73;;;8.80;99.90;;;9.03;83.43;99750.88;5045172;28;20048;-81
2023/12/14 00:59:37;;;;;;;25.08;15.30;;;8.80;99.90;;;8.98;83.26;99750.69;5079679;28;20496;-81
2023/12/14 01:02:05;;;;;;;22.05;13.38;;;8.70;99.90;;;8.96;82.97;99760.72;5077910;28;20079;-81
2023/12/14 01:04:32;;;;;;;21.23;11.90;;;8.70;99.90;;;8.99;83.24;99765.63;5077544;28;20052;-81
2023/12/14 01:07:01;;;;;;;19.23;11.77;;;8.70;99.90;;;8.99;82.96;99762.97;5078199;28;20110;-81
2023/12/14 01:09:28;;;;;;;19.52;11.75;;;8.80;99.90;;;9.00;82.47;99770.72;5079670;28;20040;-81
2023/12/14 01:11:56;;;;;;;16.23;10.13;;;8.70;99.90;;;9.02;82.50;99771.28;5077778;28;20072;-81
2023/12/14 01:14:23;;;;;;;16.70;10.13;;;8.80;99.90;;;8.99;81.93;99771.75;5061646;28;20067;-81
2023/12/14 01:16:50;;;;;;;15.30;10.35;;;8.80;99.90;;;9.00;82.11;99785.88;5079222;28;20175;-81
2023/12/14 01:19:18;;;;;;;19.08;10.70;;;8.80;99.90;;;8.99;81.55;99781.59;5078696;28;20040;-81
2023/12/14 01:21:46;;;;;;;16.65;10.35;;;8.80;99.90;;;8.93;81.43;99788.59;5078056;28;20104;-81
2023/12/14 01:24:15;;;;;;;14.88;9.70;;;8.70;99.90;;;8.98;82.12;99799.38;5078920;28;20412;-81
2023/12/14 01:26:44;;;;;;;16.48;9.50;;;8.70;99.90;;;9.01;82.22;99806.91;5079267;28;20041;-81
2023/12/14 01:29:12;;;;;;;16.75;10.52;;;8.70;99.90;;;9.05;82.25;99804.63;5077964;28;20036;-81
2023/12/14 01:31:39;;;;;;;15.20;9.93;;;8.70;99.90;;;9.06;81.92;99808.91;5077737;28;20121;-81
2023/12/14 01:34:06;;;;;;;15.50;10.13;;;8.80;99.90;;;9.06;81.73;99810.78;5078604;28;20045;-81
2023/12/14 01:36:34;;;;;;;13.20;9.10;;;8.70;99.90;;;8.99;81.43;99821.47;5077521;28;20139;-81
2023/12/14 01:39:02;;;;;;;13.55;9.15;;;8.70;99.90;;;8.85;80.77;99817.28;5060951;28;20424;-81
2023/12/14 01:41:31;;;;;;;13.77;8.68;;;8.60;99.90;;;8.82;81.08;99825.69;5061159;28;20123;-81
2023/12/14 01:43:58;;;;;;;12.45;8.02;;;8.60;99.90;;;8.83;80.93;99829.97;5077264;28;20045;-81
2023/12/14 01:46:25;;;;;;;13.18;8.48;;;8.60;99.90;;;8.84;80.96;99832.44;5060285;28;20040;-81
2023/12/14 01:48:53;;;;;;;14.95;8.35;;;8.60;99.90;;;8.84;80.81;99839.59;5077230;28;20041;-81
2023/12/14 01:51:23;;;;;;;12.38;7.97;;;8.60;99.90;;;8.88;80.83;99840.75;5076995;28;20590;-81
2023/12/14 01:53:52;;;;;;;12.60;8.57;;;8.60;99.90;;;8.82;80.27;99844.28;5061104;28;20134;-81
2023/12/14 01:56:20;;;;;;;12.77;8.18;;;8.50;99.90;;;8.76;80.32;99854.75;5077067;28;20452;-81
2023/12/14 01:58:48;;;;;;;12.35;8.00;;;8.50;99.90;;;8.79;81.15;99868.66;5077233;28;20040;-81
2023/12/14 02:01:25;;;;;;;12.77;8.25;;;8.50;99.90;;;8.82;81.09;99866.38;5077350;28;20401;-81
2023/12/14 02:03:54;;;;;;;11.70;7.63;;;8.50;99.90;;;8.85;80.74;99876.59;5078450;28;20044;-81
2023/12/14 02:06:22;;;;;;;12.18;8.05;;;8.60;99.90;;;8.80;80.46;99873.75;5077042;28;20047;-81
2023/12/14 02:08:49;;;;;;;14.85;9.30;;;8.50;99.90;;;8.78;80.61;99883.78;5077156;28;20052;-81
2023/12/14 02:11:18;;;;;;;14.52;9.18;;;8.50;99.90;;;8.77;81.25;99896.25;5060495;28;20072;-81
2023/12/14 02:13:46;;;;;;;14.65;10.02;;;8.50;99.90;;;8.79;81.37;99897.91;5076915;28;20041;-81
2023/12/14 02:16:15;;;;;;;18.25;11.68;;;8.50;99.90;;;8.79;81.03;99903.22;5043055;28;20044;-81
2023/12/14 02:18:43;;;;;;;17.88;11.90;;;8.50;99.90;;;8.79;81.15;99911.22;5042848;28;20048;-81
2023/12/14 02:21:11;;;;;;;17.33;11.93;;;8.50;99.90;;;8.79;81.09;99901.38;5076373;28;20071;-81
2023/12/14 02:23:45;;;;;;;18.85;12.20;;;8.50;99.90;;;8.77;80.96;99903.41;5059030;28;20566;-81
2023/12/14 02:26:15;;;;;;;22.15;13.77;;;8.50;99.90;;;8.74;80.66;99906.53;5076750;28;20036;-81
2023/12/14 02:28:42;;;;;;;23.30;14.77;;;8.40;99.90;;;8.70;80.77;99907.97;5076468;28;20143;-81
2023/12/14 02:31:09;;;;;;;21.90;13.95;;;8.40;99.90;;;8.70;80.34;99914.09;5076141;28;20049;-81
2023/12/14 02:33:37;;;;;;;22.23;14.55;;;8.40;99.90;;;8.67;80.65;99925.16;5059207;28;20052;-81
2023/12/14 02:36:05;;;;;;;19.92;13.25;;;8.40;99.90;;;8.64;81.07;99928.25;5077384;28;20048;-81
2023/12/14 02:38:33;;;;;;;19.98;13.38;;;8.40;99.90;;;8.69;81.04;99936.41;5058871;28;20075;-81
2023/12/14 02:41:02;;;;;;;25.15;16.75;;;8.40;99.90;;;8.68;80.91;99939.25;5076196;28;20041;-81
2023/12/14 02:43:31;;;;;;;24.88;16.60;;;8.40;99.90;;;8.71;80.75;99947.63;5059612;28;20198;-81
2023/12/14 02:46:01;;;;;;;29.48;16.77;;;8.40;99.90;;;8.67;80.57;99953.59;5077317;28;20036;-81
2023/12/14 02:48:29;;;;;;;31.87;19.20;;;8.40;99.90;;;8.62;80.23;99951.56;5076028;28;20195;-81
2023/12/14 02:50:59;;;;;;;32.63;20.25;;;8.30;99.90;;;8.54;79.97;99959.78;5076397;28;20043;-81
2023/12/14 02:53:27;;;;;;;34.20;20.83;;;8.30;99.90;;;8.51;80.23;99961.00;5078118;28;20455;-81
2023/12/14 02:55:55;;;;;;;32.38;20.17;;;8.20;99.90;;;8.51;80.38;99957.53;5075655;28;20036;-81
2023/12/14 02:58:24;;;;;;;37.15;21.73;;;8.20;99.90;;;8.48;80.25;99963.25;5076126;28;20588;-81
2023/12/14 03:00:51;;;;;;;31.30;19.52;;;8.20;99.90;;;8.47;80.39;99964.28;5078030;28;20086;-81
2023/12/14 03:03:18;;;;;;;32.15;19.00;;;8.20;99.90;;;8.48;80.34;99969.38;5078208;28;20052;-81
2023/12/14 03:05:46;;;;;;;31.77;19.30;;;8.20;99.90;;;8.49;80.22;99978.16;5079168;28;20086;-81
2023/12/14 03:08:14;;;;;;;31.48;18.10;;;8.20;99.90;;;8.47;79.88;99977.56;5078897;28;20051;-81
2023/12/14 03:10:41;;;;;;;30.83;19.83;;;8.20;99.90;;;8.31;80.52;99981.47;5078063;28;20123;-81
2023/12/14 03:13:09;;;;;;;30.80;18.58;;;8.00;99.90;;;8.40;80.75;99976.78;5043145;28;20482;-81
2023/12/14 03:15:37;;;;;;;32.10;18.42;;;8.10;99.90;;;8.46;80.48;99981.28;5077408;28;20046;-81
2023/12/14 03:18:05;;;;;;;29.70;17.23;;;8.10;99.90;;;8.47;80.14;99983.72;5077702;28;20041;-81
2023/12/14 03:20:33;;;;;;;29.17;18.00;;;8.20;99.90;;;8.45;79.78;99992.94;5076069;28;20407;-81
2023/12/14 03:23:01;;;;;;;29.90;17.90;;;8.10;99.90;;;8.51;79.89;99989.44;5076657;28;20090;-81
2023/12/14 03:25:29;;;;;;;30.73;18.40;;;8.20;99.90;;;8.49;79.32;99999.44;5075182;28;20047;-81
2023/12/14 03:27:56;;;;;;;29.70;17.67;;;8.10;99.90;;;8.51;79.64;99997.41;5057774;28;20051;-81
2023/12/14 03:30:24;;;;;;;33.95;18.67;;;8.20;99.90;;;8.54;79.62;100012.94;5077011;28;20495;-81
2023/12/14 03:32:53;;;;;;;36.33;21.55;;;8.20;99.90;;;8.55;79.57;100011.09;5077479;28;20063;-81
2023/12/14 03:35:21;;;;;;;36.63;21.17;;;8.20;99.90;;;8.52;79.48;100014.97;5058830;28;20108;-81
2023/12/14 03:37:48;;;;;;;37.50;21.70;;;8.20;99.90;;;8.47;79.14;100018.25;5077181;28;20048;-81
2023/12/14 03:40:16;;;;;;;36.28;21.20;;;8.10;99.90;;;8.38;79.55;100031.97;5077059;28;20124;-81
2023/12/14 03:42:43;;;;;;;32.15;20.27;;;8.00;99.90;;;8.42;79.96;100026.03;5058992;28;20044;-81
2023/12/14 03:45:12;;;;;;;40.60;21.27;;;8.10;99.90;;;8.46;79.90;100037.06;5076607;28;20414;-81
2023/12/14 03:47:39;;;;;;;38.10;22.73;;;8.10;99.90;;;8.41;79.36;100040.34;5058402;28;20049;-81
2023/12/14 03:50:13;;;;;;;36.28;21.85;;;8.10;99.90;;;8.42;79.74;100046.47;5058576;28;20167;-81
2023/12/14 03:52:40;;;;;;;40.15;23.50;;;8.10;99.90;;;8.44;79.91;100055.91;5076547;28;20049;-81
2023/12/14 03:55:09;;;;;;;38.85;23.40;;;8.10;99.90;;;8.43;79.57;100051.56;5075100;28;20136;-81
2023/12/14 03:57:37;;;;;;;34.90;21.10;;;8.10;99.90;;;8.42;79.85;100052.59;5058113;28;20059;-81
2023/12/14 04:00:08;;;;;;;36.50;20.20;;;8.10;99.90;;;8.40;79.89;100053.84;5075232;28;20481;-81
2023/12/14 04:02:36;;;;;;;;;;;8.10;99.90;;;8.40;79.63;100057.31;5075836;28;20048;-81
2023/12/14 04:05:03;;;;;;;31.02;18.10;;;8.10;99.90;;;8.41;80.16;100066.09;5074591;28;19943;-81
2023/12/14 04:07:32;;;;;;;27.98;17.42;;;8.10;99.90;;;8.41;80.06;100071.44;5058300;28;20085;-81
2023/12/14 04:10:00;;;;;;;28.13;17.30;;;8.10;99.90;;;8.43;80.14;100083.47;5075430;28;20055;-81
2023/12/14 04:12:28;;;;;;;23.50;14.88;;;8.10;99.90;;;8.43;79.68;100082.66;5076851;28;20040;-81
2023/12/14 04:14:56;;;;;;;23.90;13.65;;;8.10;99.90;;;8.39;79.48;100081.44;5077135;28;20044;-81
2023/12/14 04:17:24;;;;;;;22.65;12.93;;;8.10;99.90;;;8.35;79.00;100082.84;5076273;28;20044;-81
2023/12/14 04:19:52;;;;;;;21.27;13.35;;;8.00;99.90;;;8.30;79.71;100093.28;5076085;28;20048;-81
2023/12/14 04:22:19;;;;;;;20.65;13.07;;;8.00;99.90;;;8.33;79.62;100091.00;5075202;28;20075;-81
2023/12/14 04:24:48;;;;;;;20.70;12.45;;;8.00;99.90;;;8.37;79.57;100102.09;5074482;28;20496;-81
2023/12/14 04:27:16;;;;;;;21.20;12.93;;;8.00;99.90;;;8.34;78.91;100105.09;5075068;28;20040;-81
2023/12/14 04:29:43;;;;;;;19.88;11.68;;;8.00;99.90;;;8.28;79.28;100106.75;5074634;28;20041;-81
2023/12/14 04:32:11;;;;;;;19.58;12.57;;;8.00;99.90;;;8.23;79.50;100102.06;5074621;28;20075;-81
2023/12/14 04:34:39;;;;;;;20.40;13.00;;;7.90;99.90;;;8.31;79.59;100108.19;5076207;28;20037;-81
2023/12/14 04:37:06;;;;;;;19.98;12.60;;;8.00;99.90;;;8.33;79.46;100111.44;5076074;28;20048;-81
2023/12/14 04:39:34;;;;;;;24.05;14.43;;;7.90;99.90;;;8.32;79.59;100109.81;5076848;28;20590;-81
2023/12/14 04:42:03;;;;;;;22.27;13.65;;;8.00;99.90;;;8.38;79.58;100124.97;5079817;28;20083;-81
2023/12/14 04:44:31;;;;;;;23.50;14.30;;;8.00;99.90;;;8.39;79.17;100130.06;5061925;28;20423;-81
2023/12/14 04:46:58;;;;;;;23.92;13.57;;;8.10;99.90;;;8.42;79.16;100131.50;5078525;28;20068;-81
2023/12/14 04:49:26;;;;;;;25.55;16.05;;;8.10;99.90;;;8.39;78.92;100142.53;5080429;28;20098;-81
2023/12/14 04:51:53;;;;;;;26.45;17.00;;;8.00;99.90;;;8.33;79.04;100138.84;5079997;28;20067;-81
2023/12/14 04:54:21;;;;;;;31.17;16.70;;;8.00;99.90;;;8.30;78.94;100141.91;5078759;28;20048;-81
2023/12/14 04:56:48;;;;;;;30.80;17.77;;;8.00;99.90;;;8.27;79.09;100145.78;5061290;28;20422;-81
2023/12/14 04:59:17;;;;;;;27.55;16.83;;;8.00;99.90;;;8.25;78.91;100147.84;5077891;28;20127;-81
2023/12/14 05:01:45;;;;;;;28.63;17.17;;;7.90;99.90;;;8.15;78.50;100157.22;5063978;28;20051;-81
2023/12/14 05:04:12;;;;;;;27.85;16.65;;;7.80;99.90;;;8.15;78.87;100160.72;5077563;28;20053;-81
2023/12/14 05:06:40;;;;;;;27.15;16.65;;;7.80;99.90;;;8.16;79.07;100169.50;5078092;28;20044;-84
2023/12/14 05:09:11;;;;;;;31.15;18.15;;;7.80;99.90;;;8.19;79.10;100163.75;5079473;28;20128;-85
2023/12/14 05:11:41;;;;;;;27.15;16.67;;;7.90;99.90;;;8.17;78.79;100168.47;5078944;28;20139;-86
2023/12/14 05:14:08;;;;;;;25.92;15.13;;;7.80;99.90;;;8.16;78.85;100165.00;5078743;28;20495;-83
2023/12/14 05:16:37;;;;;;;29.35;16.63;;;7.80;99.90;;;8.16;79.00;100169.50;5080300;28;20079;-84
2023/12/14 05:19:05;;;;;;;30.98;16.23;;;7.80;99.90;;;8.10;79.07;100168.47;5080054;28;20071;-84
2023/12/14 05:21:32;;;;;;;28.83;16.42;;;7.80;99.90;;;8.12;79.02;100174.38;5082460;28;20052;-85
2023/12/14 05:24:00;;;;;;;24.15;16.00;;;7.80;99.90;;;8.13;79.11;100177.84;5079633;28;20502;-84
2023/12/14 05:26:27;;;;;;;23.77;15.07;;;7.80;99.90;;;8.16;79.16;100183.59;5079633;28;20049;-83
2023/12/14 05:28:55;;;;;;;24.63;15.20;;;7.80;99.90;;;8.11;78.67;100180.72;5079222;28;20412;-85
2023/12/14 05:31:27;;;;;;;24.20;14.23;;;7.80;99.90;;;8.13;78.85;100191.94;5060519;28;20500;-85
2023/12/14 05:33:56;;;;;;;21.65;14.02;;;7.80;99.90;;;8.15;78.66;100192.59;5078195;28;20068;-85
2023/12/14 05:36:24;;;;;;;26.42;14.40;;;8.10;99.90;;;8.12;78.85;100186.84;5079280;28;20067;-85
2023/12/14 05:38:52;;;;;;;21.50;13.00;;;7.80;99.90;;;8.10;78.69;100200.34;5078872;28;20048;-85
2023/12/14 05:41:19;;;;;;;24.38;14.57;;;7.80;99.90;;;8.06;78.11;100203.59;5078746;28;20075;-85
2023/12/14 05:43:47;;;;;;;20.38;13.60;;;7.70;99.90;;;8.01;78.63;100204.19;5079732;28;20044;-85
2023/12/14 05:46:23;;;;;;;23.88;13.52;;;7.60;99.90;;;8.03;78.77;100217.28;5081945;28;20068;-85
2023/12/14 05:48:50;;;;;;;24.25;13.93;;;7.70;99.90;;;7.90;78.41;100212.72;5064029;28;20058;-84
2023/12/14 05:51:30;;;;;;;24.00;13.93;;;7.60;99.90;;;7.83;78.32;100211.91;5081916;28;20044;-84
2023/12/14 05:53:58;;;;;;;26.65;14.48;;;7.50;99.90;;;7.88;79.12;100226.22;5081496;28;20166;-84
2023/12/14 05:56:27;;;;;;;24.90;14.07;;;7.60;99.90;;;7.93;78.98;100225.63;5079327;28;20048;-85
2023/12/14 05:58:54;;;;;;;26.52;15.45;;;7.60;99.90;;;7.96;79.10;100241.97;5063182;28;20074;-82
2023/12/14 06:01:22;;;;;;;23.90;15.27;;;7.60;99.90;;;8.00;79.06;100237.06;5079520;28;20044;-82
2023/12/14 06:03:49;;;;;;;24.08;14.45;;;7.70;99.90;;;8.03;78.86;100241.97;5080732;28;20072;-82
2023/12/14 06:06:17;;;;;;;22.17;13.27;;;7.70;99.90;;;7.87;77.69;100256.44;5080219;28;20040;-82
2023/12/14 06:08:47;;;;;;;24.73;13.63;;;7.60;99.90;;;7.91;78.49;100256.88;5078878;28;20449;-82
2023/12/14 06:11:15;;;;;;;23.50;14.52;;;7.60;99.90;;;7.92;78.44;100266.47;5080153;28;20068;-82
2023/12/14 06:13:43;;;;;;;23.40;13.73;;;7.60;99.90;;;7.96;78.68;100270.38;5081682;28;20071;-82
2023/12/14 06:16:12;;;;;;;24.30;13.77;;;7.60;99.90;;;7.95;78.14;100274.88;5081406;28;20045;-82
2023/12/14 06:18:43;;;;;;;23.20;13.45;;;7.60;99.90;;;7.96;78.23;100281.00;5082029;28;20057;-82
2023/12/14 06:21:12;;;;;;;23.38;13.82;;;7.70;99.90;;;7.99;78.44;100286.69;5065555;28;20060;-82
2023/12/14 06:23:40;;;;;;;22.52;14.00;;;7.70;99.90;;;8.02;78.28;100298.78;5008158;28;20075;-82
2023/12/14 06:26:08;;;;;;;24.88;14.05;;;7.70;99.90;;;7.99;78.33;100299.97;5066239;28;20044;-82
2023/12/14 06:28:36;;;;;;;29.23;16.65;;;7.70;99.90;;;8.00;78.31;100311.41;5080858;28;20067;-83
2023/12/14 06:31:04;;;;;;;31.67;17.23;;;7.70;99.90;;;8.02;78.24;100308.59;5080876;28;20119;-82
2023/12/14 06:33:32;;;;;;;31.95;18.27;;;7.70;99.90;;;7.99;78.54;100318.56;5045300;28;20507;-83
2023/12/14 06:36:03;;;;;;;30.55;18.48;;;7.70;99.90;;;8.00;78.33;100317.56;5079240;28;20051;-82
2023/12/14 06:38:31;;;;;;;33.28;18.45;;;7.70;99.90;;;8.00;78.21;100320.22;5081720;28;20094;-82
2023/12/14 06:40:58;;;;;;;33.00;18.92;;;7.70;99.90;;;8.00;78.14;100320.22;5081596;28;20545;-82
2023/12/14 06:43:27;;;;;;;33.58;18.65;;;7.70;99.90;;;8.02;78.28;100333.31;5080917;28;20086;-82
2023/12/14 06:45:56;;;;;;;36.83;20.05;;;7.70;99.90;;;8.03;78.19;100342.09;5080101;28;20049;-82
2023/12/14 06:48:23;;;;;;;36.08;20.02;;;7.70;99.90;;;8.00;78.13;100351.25;5081267;28;20041;-83
2023/12/14 06:50:54;;;;;;;35.40;21.13;;;7.70;99.90;;;7.99;77.99;100346.97;5080522;28;20071;-82
2023/12/14 06:53:23;;;;;;;39.47;21.10;;;7.60;99.90;;;8.00;78.19;100349.44;5082161;28;20048;-82
2023/12/14 06:55:50;;;;;;;41.72;21.50;;;7.70;99.90;;;8.00;78.41;100356.56;5080135;28;20477;-82
2023/12/14 06:58:18;;;;;;;37.20;21.30;;;7.70;99.90;;;7.99;78.27;100354.94;5080486;28;20060;-83
2023/12/14 07:00:48;;;;;;;37.47;21.13;;;7.60;99.90;;;8.03;78.36;100358.03;5080154;28;20555;-83
2023/12/14 07:03:16;;;;;;;37.67;21.25;;;7.70;99.90;;;8.02;78.36;100365.16;5061247;28;20438;-82
2023/12/14 07:05:44;;;;;;;36.88;21.33;;;7.70;99.90;;;8.00;78.21;100362.72;5078846;28;20082;-82
2023/12/14 07:08:12;;;;;;;37.28;20.98;;;7.60;99.90;;;8.02;78.36;100359.88;5080508;28;20048;-82
2023/12/14 07:10:42;;;;;;;37.67;21.73;;;7.70;99.90;;;8.00;78.24;100362.72;5062285;28;20040;-82
2023/12/14 07:13:09;;;;;;;37.05;21.08;;;7.60;99.90;;;8.01;78.49;100374.16;5079043;28;20044;-82
2023/12/14 07:15:36;;;;;;;38.72;21.92;;;7.70;99.90;;;8.02;78.30;100377.63;5079188;28;20044;-83
2023/12/14 07:18:06;;;;;;;37.53;21.45;;;7.60;99.90;;;8.00;78.23;100375.16;5079358;28;20063;-82
2023/12/14 07:20:33;;;;;;;44.78;23.88;;;7.70;99.90;;;8.00;78.63;100393.75;5079576;28;20075;-82
2023/12/14 07:23:01;;;;;;;46.72;26.08;;;7.70;99.90;;;7.96;78.44;100400.50;5062004;28;20121;-82
2023/12/14 07:25:28;;;;;;;52.15;25.77;;;7.60;99.90;;;7.93;78.59;100409.66;5057355;28;20102;-82
2023/12/14 07:27:55;;;;;;;46.30;24.40;;;7.60;99.90;;;7.95;78.70;100423.56;5058931;28;20504;-82
2023/12/14 07:30:23;;;;;;;48.00;25.48;;;7.60;99.90;;;7.97;78.66;100420.72;5060081;28;20063;-82
2023/12/14 07:32:51;;;;;;;46.50;23.83;;;7.60;99.90;;;7.96;78.61;100427.03;5061800;28;20045;-82
2023/12/14 07:35:19;;;;;;;47.25;25.33;;;7.60;99.90;;;7.92;78.72;100436.41;5079398;28;20135;-82
2023/12/14 07:37:47;;;;;;;43.38;22.70;;;7.60;99.90;;;7.89;78.66;100434.94;5081332;28;20556;-82
2023/12/14 07:40:15;;;;;;;38.42;22.38;;;7.50;99.90;;;7.89;78.78;100444.75;5078807;28;20041;-82
2023/12/14 07:42:42;;;;;;;36.85;22.40;;;7.50;99.90;;;7.86;78.67;100456.59;5078303;28;20397;-83
2023/12/14 07:45:10;;;;;;;40.05;21.88;;;7.50;99.90;;;7.88;78.56;100459.06;5080071;28;20071;-82
2023/12/14 07:47:38;;;;;;;38.50;21.65;;;7.60;99.90;;;7.80;78.39;100469.81;5080110;28;20040;-82
2023/12/14 07:50:08;;;;;;;42.25;22.48;;;7.50;99.90;;;7.80;78.17;100461.84;5080181;28;20037;-82
2023/12/14 07:52:37;;;;;;;41.53;20.65;;;7.50;99.90;;;7.77;78.26;100462.25;5045614;28;20052;-82
2023/12/14 07:55:07;;;;;;;35.67;21.20;;;7.40;99.90;;;7.79;78.19;100463.69;5077076;28;20048;-82
2023/12/14 07:57:34;;;;;;;36.27;20.50;;;7.50;99.90;;;7.82;78.43;100476.56;5094737;28;20080;-82
2023/12/14 08:00:03;;;;;;;39.05;20.23;;;7.50;99.90;;;7.81;77.82;100477.59;5061532;28;20087;-82
2023/12/14 08:02:33;;;;;;;40.35;21.23;;;7.50;99.90;;;7.78;78.45;100485.13;5079819;28;20044;-82
2023/12/14 08:05:01;;;;;;;35.47;19.65;;;7.40;99.90;;;7.80;78.64;100478.59;5079074;28;20044;-82
2023/12/14 08:07:29;;;;;;;28.85;17.60;;;7.50;99.90;;;7.75;77.95;100486.31;5077838;28;20075;-82
2023/12/14 08:09:58;;;;;;;29.35;16.98;;;7.40;99.90;;;7.70;78.02;100494.84;5060548;28;20059;-82
2023/12/14 08:12:26;;;;;;;26.65;17.52;;;7.40;99.90;;;7.73;78.13;100498.97;5078641;28;20427;-82
2023/12/14 08:14:54;;;;;;;28.15;16.95;;;7.40;99.90;;;7.75;78.12;100503.06;5062797;28;20040;-82
2023/12/14 08:17:21;;;;;;;31.45;17.27;;;7.40;99.90;;;7.79;78.04;100511.47;5081949;28;20526;-82
2023/12/14 08:19:49;;;;;;;31.48;17.45;;;7.50;99.90;;;7.80;77.75;100525.56;5081971;28;20071;-82
2023/12/14 08:22:16;;;;;;;27.05;16.88;;;7.50;99.90;;;7.77;77.56;100532.09;5081614;28;20119;-82
2023/12/14 08:24:44;;;;;;;29.35;17.83;;;7.40;99.90;;;7.75;77.80;100537.56;5081420;28;20052;-82
2023/12/14 08:27:13;;;;;;;30.05;17.52;;;7.40;99.90;;;7.79;77.86;100542.50;5065053;28;20048;-82
2023/12/14 08:29:40;;;;;;;32.30;18.60;;;7.40;99.90;;;7.81;77.65;100540.47;5081620;28;20040;-82
2023/12/14 08:32:08;;;;;;;28.20;17.25;;;7.50;99.90;;;7.82;77.68;100550.91;5081113;28;20040;-82
2023/12/14 08:34:36;;;;;;;29.92;18.55;;;7.40;99.90;;;7.81;77.95;100554.59;5080823;28;20076;-82
2023/12/14 08:37:03;;;;;;;35.33;20.65;;;7.40;99.90;;;7.81;77.85;100559.91;5082636;28;20045;-82
2023/12/14 08:39:31;;;;;;;47.25;25.25;;;7.40;99.90;;;7.79;77.63;100564.56;5082737;28;20415;-82
2023/12/14 08:41:59;;;;;;;48.35;27.65;;;7.40;99.90;;;7.78;77.61;100570.88;5082787;28;20131;-82
2023/12/14 08:44:27;;;;;;;59.80;28.50;;;7.40;99.90;;;7.80;77.84;100579.47;5082047;28;20046;-82
2023/12/14 08:46:55;;;;;;;57.17;30.95;;;7.40;99.90;;;7.79;77.89;100582.31;5082040;28;20108;-82
2023/12/14 08:49:23;;;;;;;55.88;30.58;;;7.40;99.90;;;7.82;78.02;100588.09;5080908;28;20072;-82
2023/12/14 08:51:51;;;;;;;58.88;32.17;;;7.50;99.90;;;7.82;77.85;100587.28;5080659;28;20041;-82
2023/12/14 08:54:18;;;;;;;52.65;29.75;;;7.50;99.90;;;7.80;77.31;100591.94;5080415;28;20056;-82
2023/12/14 08:56:46;;;;;;;52.42;29.27;;;7.40;99.90;;;7.79;77.67;100595.59;5080837;28;20042;-82
2023/12/14 08:59:13;;;;;;;51.33;28.83;;;7.50;99.90;;;7.79;77.62;100604.38;5079896;28;20090;-82
2023/12/14 09:01:42;;;;;;;46.72;27.23;;;7.50;99.90;;;7.77;77.63;100600.28;5080752;28;20094;-82
2023/12/14 09:04:10;;;;;;;48.50;26.83;;;7.50;99.90;;;7.75;77.80;100606.59;5046808;28;20048;-82
2023/12/14 09:06:37;;;;;;;46.70;25.95;;;7.50;99.90;;;7.76;77.66;100610.09;5082733;28;20492;-82
2023/12/14 09:09:05;;;;;;;41.85;25.05;;;7.40;99.90;;;7.75;77.40;100622.53;5082322;28;20507;-82
2023/12/14 09:11:34;;;;;;;46.28;26.25;;;7.40;99.90;;;7.75;77.86;100622.53;5081967;28;20861;-82
2023/12/14 09:14:02;;;;;;;48.13;26.98;;;7.40;99.90;;;7.71;77.08;100634.56;5082001;28;20044;-82
2023/12/14 09:16:30;;;;;;;48.90;26.95;;;7.40;99.90;;;7.70;77.88;100632.06;5081047;28;20102;-82
2023/12/14 09:18:59;;;;;;;43.03;26.15;;;7.40;99.90;;;7.72;77.90;100633.53;5063884;28;20033;-82
2023/12/14 09:21:26;;;;;;;46.45;26.50;;;7.40;99.90;;;7.68;77.17;100639.41;5081685;28;20477;-82
2023/12/14 09:23:54;;;;;;;47.92;25.98;;;7.40;99.90;;;7.68;77.57;100640.22;5082304;28;20094;-82
2023/12/14 09:26:21;;;;;;;47.28;26.80;;;7.40;99.90;;;7.65;77.15;100645.91;5079325;28;20040;-83
2023/12/14 09:28:49;;;;;;;53.15;27.63;;;7.30;99.90;;;7.60;77.41;100645.63;5080500;28;20043;-81
2023/12/14 09:31:16;;;;;;;50.05;28.63;;;7.30;99.90;;;7.63;77.91;100639.16;5063517;28;20063;-82
2023/12/14 09:33:45;;;;;;;51.47;27.80;;;7.30;99.90;;;7.66;77.99;100642.25;5081472;28;20048;-82
2023/12/14 09:36:14;;;;;;;47.97;27.23;;;7.30;99.90;;;7.69;78.05;100652.47;5080155;28;20067;-82
2023/12/14 09:38:41;;;;;;;54.58;28.30;;;7.40;99.90;;;7.71;77.61;100650.47;5064849;28;20123;-82
2023/12/14 09:41:09;;;;;;;57.47;28.52;;;7.40;99.90;;;7.72;77.60;100659.25;5080417;28;20107;-82
2023/12/14 09:43:37;;;;;;;47.35;26.83;;;7.40;99.90;;;7.72;77.19;100659.25;5082338;28;20071;-82
2023/12/14 09:46:05;;;;;;;51.40;27.15;;;7.40;99.90;;;7.73;77.31;100660.91;5080469;28;20673;-83
2023/12/14 09:48:34;;;;;;;44.65;26.00;;;7.40;99.90;;;7.73;77.35;100659.06;5081231;28;20041;-82
2023/12/14 09:51:01;;;;;;;48.33;26.98;;;7.40;99.90;;;7.74;77.46;100665.19;5081577;28;20049;-82
2023/12/14 09:53:32;;;;;;;42.40;24.83;;;7.40;99.90;;;7.73;77.37;100659.06;5080765;28;20098;-82
2023/12/14 09:56:02;;;;;;;41.30;24.13;;;7.40;99.90;;;7.75;77.28;100666.84;5083041;28;20044;-82
2023/12/14 09:58:33;;;;;;;40.40;22.38;;;7.40;99.90;;;7.73;77.41;100676.81;5081114;28;20048;-83
2023/12/14 10:01:04;;;;;;;38.33;22.48;;;7.40;99.90;;;7.75;77.21;100686.22;5065073;28;20388;-82
2023/12/14 10:03:32;;;;;;;34.00;20.60;;;7.40;99.90;;;7.72;77.26;100689.28;5080580;28;20075;-82
2023/12/14 10:06:01;;;;;;;35.97;20.73;;;7.30;99.90;;;7.71;77.12;100692.09;5082337;28;20106;-82
2023/12/14 10:08:30;;;;;;;35.50;20.35;;;7.40;99.90;;;7.71;77.12;100708.03;5063823;28;20049;-83
2023/12/14 10:10:58;;;;;;;36.08;20.55;;;7.40;99.90;;;7.66;76.84;100703.31;5079511;28;20036;-83
2023/12/14 10:13:38;;;;;;;34.45;19.55;;;7.30;99.90;;;7.63;76.93;100710.81;5078894;28;20084;-84
2023/12/14 10:16:06;;;;;;;30.58;18.75;;;7.30;99.90;;;7.66;77.28;100716.59;5077696;28;20040;-83
2023/12/14 10:18:36;;;;;;;33.30;19.90;;;7.30;99.90;;;7.68;77.25;100722.50;5078496;28;20045;-83